Time;durP1;ratioP1;P1;durP2;ratioP2;P2;SDS_P1;SDS_P2;PMS_P1;PMS_P2;Temp;Humidity;BMP_temperature;BMP_pressure;BME280_temperature;BME280_humidity;BME280_pressure;Samples;Min_cycle;Max_cycle;Signal;HPM_P1;HPM_P2
2022/05/14 00:00:19;;;;;;;;;;;;;;;13.65;47.21;100999.31;4957349;28;127231;-62
2022/05/14 00:02:48;;;;;;;;;;;;;;;13.61;47.93;101000.97;4959125;28;97639;-63
2022/05/14 00:05:13;;;;;;;;;;;;;;;13.58;48.44;100999.59;4958651;28;127591;-65
2022/05/14 00:07:39;;;;;;;;;;;;;;;13.57;48.09;101006.09;4957883;28;128651;-62
2022/05/14 00:10:06;;;;;;;;;;;;;;;13.56;48.06;101007.19;4958351;28;104836;-64
2022/05/14 00:15:16;;;;;;;;;;;;;;;13.53;47.94;100999.63;4950497;28;98138;-62
2022/05/14 00:17:42;;;;;;;;;;;;;;;13.53;47.92;100998.81;4948679;28;127495;-63
2022/05/14 00:20:09;;;;;;;;;;;;;;;13.49;47.98;100999.34;4944051;28;126939;-65
2022/05/14 00:22:35;;;;;;;;;;;;;;;13.48;48.08;100997.75;4961121;28;97863;-62
2022/05/14 00:25:02;;;;;;;;;;;;;;;13.47;47.96;101000.69;4959857;28;99077;-65
2022/05/14 00:27:28;;;;;;;;;;;;;;;13.45;48.03;100998.28;4960658;28;98699;-62
2022/05/14 00:29:55;;;;;;;;;;;;;;;13.44;48.18;100998.53;4955356;28;128511;-63
2022/05/14 00:32:21;;;;;;;;;;;;;;;13.43;48.47;100996.91;4938109;28;98098;-62
2022/05/14 00:34:47;;;;;;;;;;;;;;;13.40;48.39;100990.16;4939560;28;98218;-65
2022/05/14 00:37:13;;;;;;;;;;;;;;;13.39;48.67;100991.22;4940316;28;98139;-65
2022/05/14 00:39:39;;;;;;;;;;;;;;;13.38;48.60;100991.53;4938623;28;128215;-65
2022/05/14 00:42:06;;;;;;;;;;;;;;;13.36;48.68;100990.97;4942389;28;97719;-62
2022/05/14 00:44:32;;;;;;;;;;;;;;;13.34;48.84;100993.16;4939015;28;98243;-62
2022/05/14 00:47:02;;;;;;;;;;;;;;;13.32;48.82;100990.69;4938763;28;129062;-62
2022/05/14 00:49:29;;;;;;;;;;;;;;;13.27;48.93;100985.28;4949006;28;98081;-65
2022/05/14 00:51:54;;;;;;;;;;;;;;;13.25;49.14;100990.19;4953928;28;104361;-62
2022/05/14 00:54:27;;;;;;;;;;;;;;;13.23;49.18;100989.63;4940185;28;128537;-65
2022/05/14 00:56:54;;;;;;;;;;;;;;;13.22;49.23;100986.09;4962204;28;102503;-62
2022/05/14 00:59:22;;;;;;;;;;;;;;;13.19;49.34;100983.91;4950820;28;114047;-62
2022/05/14 01:01:48;;;;;;;;;;;;;;;13.15;49.30;100990.16;4944129;28;97983;-63
2022/05/14 01:04:14;;;;;;;;;;;;;;;13.09;49.52;100992.06;4944780;28;99236;-65
2022/05/14 01:06:43;;;;;;;;;;;;;;;13.06;49.77;100991.78;4942974;28;98750;-62
2022/05/14 01:09:09;;;;;;;;;;;;;;;13.01;49.96;100995.31;4950780;28;98269;-62
2022/05/14 01:11:36;;;;;;;;;;;;;;;12.98;49.67;100993.13;4961083;28;98517;-65
2022/05/14 01:14:03;;;;;;;;;;;;;;;12.93;49.94;100998.53;4951293;28;102294;-63
2022/05/14 01:16:29;;;;;;;;;;;;;;;12.87;49.86;100996.91;4943116;28;98659;-62
2022/05/14 01:18:55;;;;;;;;;;;;;;;12.80;50.08;100991.75;4948264;28;98282;-62
2022/05/14 01:21:59;;;;;;;;;;;;;;;12.75;49.96;100989.06;4962664;28;117650;-62
2022/05/14 01:27:20;;;;;;;;;;;;;;;12.63;49.99;100985.81;4948604;28;97836;-64
2022/05/14 01:29:46;;;;;;;;;;;;;;;12.60;50.71;100980.94;4947035;28;127404;-64
2022/05/14 01:32:12;;;;;;;;;;;;;;;12.59;50.61;100984.72;4950663;28;97984;-62
2022/05/14 01:34:38;;;;;;;;;;;;;;;12.56;50.59;100977.94;4961124;28;127257;-62
2022/05/14 01:37:04;;;;;;;;;;;;;;;12.53;50.42;100984.69;4961922;28;98754;-62
2022/05/14 01:39:30;;;;;;;;;;;;;;;12.50;50.52;100987.13;4961412;28;97985;-65
2022/05/14 01:41:56;;;;;;;;;;;;;;;12.47;50.61;100985.78;4960382;28;116745;-62
2022/05/14 01:44:22;;;;;;;;;;;;;;;12.44;51.09;100980.91;4950710;28;98910;-62
2022/05/14 01:46:48;;;;;;;;;;;;;;;12.42;51.05;100983.06;4963346;28;99433;-63
2022/05/14 01:49:14;;;;;;;;;;;;;;;12.40;50.78;100984.41;4960865;28;128236;-62
2022/05/14 01:51:40;;;;;;;;;;;;;;;12.37;50.96;100984.94;4962114;28;104034;-62
2022/05/14 01:54:06;;;;;;;;;;;;;;;12.31;50.75;100986.81;4959300;28;129054;-62
2022/05/14 01:56:32;;;;;;;;;;;;;;;12.28;51.00;100990.84;4961794;28;126357;-64
2022/05/14 01:58:58;;;;;;;;;;;;;;;12.24;51.01;100989.75;4953446;28;98348;-62
2022/05/14 02:01:31;;;;;;;;;;;;;;;12.23;51.20;100977.34;4941195;28;117849;-64
2022/05/14 02:04:02;;;;;;;;;;;;;;;12.22;51.21;100985.69;4947391;28;126417;-64
2022/05/14 02:06:28;;;;;;;;;;;;;;;12.20;51.34;100985.16;4960124;28;98616;-62
2022/05/14 02:08:54;;;;;;;;;;;;;;;12.18;51.17;100981.91;4954023;28;97873;-64
2022/05/14 02:11:21;;;;;;;;;;;;;;;12.16;51.39;100987.56;4957673;28;98151;-64
2022/05/14 02:13:47;;;;;;;;;;;;;;;12.13;51.15;100977.28;4947507;28;98022;-64
2022/05/14 02:16:13;;;;;;;;;;;;;;;12.12;51.58;100974.88;4961419;28;98340;-61
2022/05/14 02:18:39;;;;;;;;;;;;;;;12.09;51.22;100975.38;4957100;28;124387;-62
2022/05/14 02:21:05;;;;;;;;;;;;;;;12.05;51.58;100975.09;4942450;28;106562;-65
2022/05/14 02:23:31;;;;;;;;;;;;;;;11.99;51.30;100968.06;4941125;28;124913;-61
2022/05/14 02:25:57;;;;;;;;;;;;;;;11.94;51.38;100968.03;4941213;28;123613;-62
2022/05/14 02:28:23;;;;;;;;;;;;;;;11.91;51.63;100966.69;4957152;28;98081;-62
2022/05/14 02:30:49;;;;;;;;;;;;;;;11.88;51.31;100966.41;4943911;28;97958;-65
2022/05/14 02:33:15;;;;;;;;;;;;;;;11.87;51.26;100967.44;4959752;28;118795;-64
2022/05/14 02:35:41;;;;;;;;;;;;;;;11.84;51.66;100965.31;4961089;28;98124;-64
2022/05/14 02:38:07;;;;;;;;;;;;;;;11.79;52.01;100961.47;4960712;28;97837;-62
2022/05/14 02:40:33;;;;;;;;;;;;;;;11.74;52.03;100971.41;4960348;28;97904;-65
2022/05/14 02:42:59;;;;;;;;;;;;;;;11.68;52.18;100967.91;4960736;28;98688;-64
2022/05/14 02:45:25;;;;;;;;;;;;;;;11.63;51.75;100961.63;4940224;28;128448;-61
2022/05/14 02:47:51;;;;;;;;;;;;;;;11.58;52.22;100969.72;4959208;28;126705;-61
2022/05/14 02:50:17;;;;;;;;;;;;;;;11.53;52.27;100965.91;4938766;28;97860;-62
2022/05/14 02:52:44;;;;;;;;;;;;;;;11.51;52.41;100965.38;4954144;28;122924;-65
2022/05/14 02:55:10;;;;;;;;;;;;;;;11.49;52.41;100964.00;4943033;28;98452;-65
2022/05/14 02:57:36;;;;;;;;;;;;;;;11.47;52.52;100966.13;4941821;28;98152;-62
2022/05/14 03:00:03;;;;;;;;;;;;;;;11.49;52.19;100967.50;4959987;28;97855;-64
2022/05/14 03:02:29;;;;;;;;;;;;;;;11.55;52.35;100971.88;4942964;28;117378;-62
2022/05/14 03:04:55;;;;;;;;;;;;;;;11.61;53.02;100963.81;4960945;28;98538;-62
2022/05/14 03:07:21;;;;;;;;;;;;;;;11.66;52.51;100961.94;4961601;28;109915;-65
2022/05/14 03:09:50;;;;;;;;;;;;;;;11.70;52.20;100965.72;4950818;28;98181;-65
2022/05/14 03:12:16;;;;;;;;;;;;;;;11.72;52.22;100963.59;4939817;28;129509;-64
2022/05/14 03:14:42;;;;;;;;;;;;;;;11.73;52.10;100961.69;4941085;28;97964;-63
2022/05/14 03:17:08;;;;;;;;;;;;;;;11.75;52.23;100965.78;4941636;28;97852;-65
2022/05/14 03:19:34;;;;;;;;;;;;;;;11.79;51.81;100966.06;4949229;28;97832;-62
2022/05/14 03:22:01;;;;;;;;;;;;;;;11.83;52.12;100974.44;4960183;28;98447;-62
2022/05/14 03:24:27;;;;;;;;;;;;;;;11.84;52.22;100971.50;4961042;28;98087;-62
2022/05/14 03:26:53;;;;;;;;;;;;;;;11.88;52.22;100972.63;4960854;28;98554;-62
2022/05/14 03:29:19;;;;;;;;;;;;;;;11.92;51.74;100972.91;4954947;28;97799;-62
2022/05/14 03:31:45;;;;;;;;;;;;;;;11.94;52.18;100976.13;4939673;28;126759;-62
2022/05/14 03:34:11;;;;;;;;;;;;;;;11.96;51.80;100979.41;4940506;28;98982;-65
2022/05/14 03:36:40;;;;;;;;;;;;;;;11.96;51.65;100976.69;4940915;28;98881;-65
2022/05/14 03:39:06;;;;;;;;;;;;;;;11.95;51.68;100977.78;4944256;28;109396;-65
2022/05/14 03:41:33;;;;;;;;;;;;;;;11.94;51.57;100979.66;4960377;28;98030;-65
2022/05/14 03:43:59;;;;;;;;;;;;;;;11.95;51.95;100980.47;4958903;28;98536;-62
2022/05/14 03:46:24;;;;;;;;;;;;;;;11.96;51.82;100979.41;4959502;28;98011;-65
2022/05/14 03:48:50;;;;;;;;;;;;;;;11.96;51.81;100982.91;4958536;28;117450;-65
2022/05/14 03:51:16;;;;;;;;;;;;;;;11.96;52.13;100974.81;4942271;28;108981;-65
2022/05/14 03:53:42;;;;;;;;;;;;;;;11.97;52.17;100975.63;4940857;28;127256;-62
2022/05/14 03:56:08;;;;;;;;;;;;;;;11.95;51.94;100984.00;4943415;28;114426;-65
2022/05/14 03:58:34;;;;;;;;;;;;;;;11.96;52.51;100991.00;4960080;28;118234;-62
2022/05/14 04:01:01;;;;;;;;;;;;;;;11.99;51.99;100992.38;4958170;28;99415;-65
2022/05/14 04:03:28;;;;;;;;;;;;;;;12.02;52.20;100983.72;4959657;28;113989;-62
2022/05/14 04:05:54;;;;;;;;;;;;;;;12.04;52.10;100992.41;4960028;28;98469;-65
2022/05/14 04:08:20;;;;;;;;;;;;;;;12.07;52.23;100981.06;4957557;28;98312;-62
2022/05/14 04:10:46;;;;;;;;;;;;;;;12.10;52.44;100991.31;4956281;28;99112;-64
2022/05/14 04:13:12;;;;;;;;;;;;;;;12.11;52.47;100989.47;4958560;28;127024;-62
2022/05/14 04:15:38;;;;;;;;;;;;;;;12.14;52.68;100992.41;4958785;28;126616;-62
2022/05/14 04:18:05;;;;;;;;;;;;;;;12.19;52.33;100995.16;4959272;28;109903;-65
2022/05/14 04:20:31;;;;;;;;;;;;;;;12.25;52.17;100990.56;4944191;28;125983;-62
2022/05/14 04:22:57;;;;;;;;;;;;;;;12.28;52.28;100992.75;4940983;28;98209;-62
2022/05/14 04:25:23;;;;;;;;;;;;;;;12.35;52.13;100987.09;4940460;28;97670;-65
2022/05/14 04:27:49;;;;;;;;;;;;;;;12.43;52.09;100992.00;4950223;28;97911;-65
2022/05/14 04:30:16;;;;;;;;;;;;;;;12.47;51.98;100995.78;4951877;28;98571;-63
2022/05/14 04:32:42;;;;;;;;;;;;;;;12.51;52.06;100989.56;4944268;28;98889;-63
2022/05/14 04:35:08;;;;;;;;;;;;;;;12.54;52.04;100985.53;4942368;28;122241;-62
2022/05/14 04:37:35;;;;;;;;;;;;;;;12.61;52.03;100986.06;4942247;28;98057;-62
2022/05/14 04:40:01;;;;;;;;;;;;;;;12.67;51.97;100993.09;4950669;28;99244;-63
2022/05/14 04:42:27;;;;;;;;;;;;;;;12.76;51.79;100993.38;4943399;28;127213;-62
2022/05/14 04:44:53;;;;;;;;;;;;;;;12.86;51.64;100998.00;4942897;28;98155;-62
2022/05/14 04:47:19;;;;;;;;;;;;;;;13.00;51.58;100997.19;4944422;28;119292;-65
2022/05/14 04:49:46;;;;;;;;;;;;;;;13.13;51.32;100995.84;4950823;28;98599;-66
2022/05/14 04:52:12;;;;;;;;;;;;;;;13.21;51.38;101003.41;4963221;28;99074;-65
2022/05/14 04:54:38;;;;;;;;;;;;;;;13.35;51.34;100997.47;4945932;28;119774;-65
2022/05/14 04:57:05;;;;;;;;;;;;;;;13.49;50.90;101004.78;4940242;28;98001;-65
2022/05/14 04:59:31;;;;;;;;;;;;;;;13.60;50.92;101002.84;4940818;28;98668;-65
2022/05/14 05:04:42;;;;;;;;;;;;;;;13.86;50.74;101010.91;4942961;28;97976;-65
2022/05/14 05:07:08;;;;;;;;;;;;;;;13.98;50.52;101009.50;4940084;28;101094;-66
2022/05/14 05:09:34;;;;;;;;;;;;;;;14.14;50.27;101006.72;4941926;28;124396;-65
2022/05/14 05:12:00;;;;;;;;;;;;;;;14.33;50.19;101004.22;4944094;28;98923;-62
2022/05/14 05:14:26;;;;;;;;;;;;;;;14.55;49.47;101012.00;4938807;28;98098;-65
2022/05/14 05:16:52;;;;;;;;;;;;;;;14.74;49.42;101015.66;4936783;28;117587;-62
2022/05/14 05:19:19;;;;;;;;;;;;;;;14.88;49.53;101005.78;4939007;28;98703;-65
2022/05/14 05:21:45;;;;;;;;;;;;;;;15.03;49.21;101015.72;4940620;28;117059;-63
2022/05/14 05:24:11;;;;;;;;;;;;;;;15.23;49.14;101015.53;4939417;28;98149;-62
2022/05/14 05:26:37;;;;;;;;;;;;;;;15.43;49.00;101017.25;4939342;28;100832;-62
2022/05/14 05:29:04;;;;;;;;;;;;;;;15.60;48.85;101027.72;4939460;28;99182;-65
2022/05/14 05:31:31;;;;;;;;;;;;;;;15.78;48.19;101023.47;4939368;28;98713;-62
2022/05/14 05:33:57;;;;;;;;;;;;;;;15.96;48.04;101030.06;4939947;28;97913;-62
2022/05/14 05:36:23;;;;;;;;;;;;;;;16.14;48.05;101033.91;4938852;28;105953;-62
2022/05/14 05:38:51;;;;;;;;;;;;;;;16.34;47.73;101033.66;4939589;28;126549;-62
2022/05/14 05:41:17;;;;;;;;;;;;;;;16.58;47.58;101030.06;4936762;28;98366;-62
2022/05/14 05:43:44;;;;;;;;;;;;;;;16.82;47.55;101030.88;4942718;28;98510;-62
2022/05/14 05:46:11;;;;;;;;;;;;;;;17.08;46.88;101035.91;4941349;28;105133;-67
2022/05/14 05:48:37;;;;;;;;;;;;;;;17.32;46.55;101033.84;4940027;28;98281;-65
2022/05/14 05:51:03;;;;;;;;;;;;;;;17.56;46.17;101039.16;4938743;28;124943;-62
2022/05/14 05:58:58;;;;;;;;;;;;;;;18.44;45.08;101047.28;4937227;28;98609;-65
2022/05/14 06:01:24;;;;;;;;;;;;;;;19.25;44.06;101043.78;4937823;28;128229;-62
2022/05/14 06:03:51;;;;;;;;;;;;;;;20.06;43.14;101046.31;4939889;28;103140;-62
2022/05/14 06:06:17;;;;;;;;;;;;;;;21.25;41.89;101050.59;4937317;28;98071;-66
2022/05/14 06:08:44;;;;;;;;;;;;;;;21.97;41.21;101057.22;4937301;28;129131;-62
2022/05/14 06:11:09;;;;;;;;;;;;;;;22.28;41.28;101048.66;4938609;28;122137;-66
2022/05/14 06:13:35;;;;;;;;;;;;;;;22.63;40.95;101057.47;4941433;28;128956;-65
2022/05/14 06:16:01;;;;;;;;;;;;;;;22.98;40.57;101059.97;4937908;28;117708;-68
2022/05/14 06:18:27;;;;;;;;;;;;;;;23.36;40.20;101058.97;4938016;28;109978;-63
2022/05/14 06:20:53;;;;;;;;;;;;;;;23.79;39.59;101054.97;4953242;28;128004;-65
2022/05/14 06:23:19;;;;;;;;;;;;;;;24.08;39.26;101054.72;4937159;28;128087;-71
2022/05/14 06:25:45;;;;;;;;;;;;;;;24.34;39.00;101053.59;4946317;28;109736;-66
2022/05/14 06:28:11;;;;;;;;;;;;;;;24.68;38.25;101047.56;4950582;28;127941;-70
2022/05/14 06:30:41;;;;;;;;;;;;;;;25.23;37.62;101050.72;4938491;28;110870;-69
2022/05/14 06:33:07;;;;;;;;;;;;;;;25.72;36.44;101050.41;4938548;28;98305;-69
2022/05/14 06:35:34;;;;;;;;;;;;;;;26.55;35.22;101056.75;4937734;28;104023;-69
2022/05/14 06:38:01;;;;;;;;;;;;;;;26.74;34.62;101055.97;4945069;28;98804;-70
2022/05/14 06:40:26;;;;;;;;;;;;;;;26.96;34.24;101051.69;4939769;28;98217;-65
2022/05/14 06:42:53;;;;;;;;;;;;;;;27.39;33.51;101053.34;4947036;28;126291;-65
2022/05/14 06:45:19;;;;;;;;;;;;;;;27.94;32.62;101064.16;4938913;28;97889;-69
2022/05/14 06:47:45;;;;;;;;;;;;;;;28.23;32.30;101045.22;4937640;28;126331;-69
2022/05/14 06:50:11;;;;;;;;;;;;;;;28.04;31.97;101052.47;4945136;28;98172;-64
2022/05/14 06:52:37;;;;;;;;;;;;;;;27.89;31.37;101050.63;4944703;28;97957;-69
2022/05/14 06:55:04;;;;;;;;;;;;;;;27.80;31.51;101050.09;4938227;28;99134;-65
2022/05/14 06:57:30;;;;;;;;;;;;;;;27.80;31.67;101052.88;4938079;28;117994;-64
2022/05/14 06:59:56;;;;;;;;;;;;;;;27.76;31.75;101040.94;4938872;28;127877;-64
2022/05/14 07:02:23;;;;;;;;;;;;;;;27.70;30.90;101039.59;4951953;28;98383;-64
2022/05/14 07:07:33;;;;;;;;;;;;;;;27.96;30.65;101042.44;4934558;28;98225;-68
2022/05/14 07:10:00;;;;;;;;;;;;;;;28.09;30.46;101046.59;4937945;28;100402;-64
2022/05/14 07:12:26;;;;;;;;;;;;;;;28.27;30.56;101044.09;4937439;28;98962;-68
2022/05/14 07:14:52;;;;;;;;;;;;;;;28.31;30.36;101036.63;4937547;28;98050;-68
2022/05/14 07:17:18;;;;;;;;;;;;;;;28.38;30.37;101047.84;4934897;28;130161;-68
2022/05/14 07:19:44;;;;;;;;;;;;;;;28.52;30.13;101047.25;4938059;28;128107;-64
2022/05/14 07:22:14;;;;;;;;;;;;;;;28.58;30.21;101042.19;4937637;28;98628;-64
2022/05/14 07:24:40;;;;;;;;;;;;;;;28.67;30.12;101055.75;4945291;28;97936;-68
2022/05/14 07:27:10;;;;;;;;;;;;;;;28.80;30.07;101057.09;4936124;28;129613;-70
2022/05/14 07:29:36;;;;;;;;;;;;;;;28.85;29.65;101052.03;4946952;28;98676;-68
2022/05/14 07:32:03;;;;;;;;;;;;;;;28.96;29.87;101046.59;4951498;28;128355;-64
2022/05/14 07:34:30;;;;;;;;;;;;;;;29.13;29.55;101050.78;4936802;28;98060;-62
2022/05/14 07:37:02;;;;;;;;;;;;;;;29.25;29.40;101042.19;4942811;28;98283;-64
2022/05/14 07:39:31;;;;;;;;;;;;;;;29.30;29.57;101044.63;4959006;28;105796;-64
2022/05/14 07:41:59;;;;;;;;;;;;;;;29.51;29.49;101040.44;4936566;28;125420;-69
2022/05/14 07:44:28;;;;;;;;;;;;;;;29.81;29.08;101049.47;4936100;28;98385;-66
2022/05/14 07:46:55;;;;;;;;;;;;;;;30.18;28.08;101045.00;4934912;28;124978;-66
2022/05/14 07:49:21;;;;;;;;;;;;;;;30.48;28.25;101042.00;4940040;28;98902;-66
2022/05/14 07:51:47;;;;;;;;;;;;;;;30.82;27.65;101041.78;4938195;28;124737;-67
2022/05/14 07:54:13;;;;;;;;;;;;;;;31.09;27.69;101043.06;4939496;28;117611;-67
2022/05/14 07:56:40;;;;;;;;;;;;;;;31.51;27.33;101036.78;4935717;28;127372;-62
2022/05/14 07:59:06;;;;;;;;;;;;;;;31.78;26.44;101041.94;4937943;28;99137;-67
2022/05/14 08:01:32;;;;;;;;;;;;;;;31.93;25.99;101035.22;4939152;28;122506;-62
2022/05/14 08:03:58;;;;;;;;;;;;;;;32.17;25.71;101035.56;4934556;28;117599;-66
2022/05/14 08:06:24;;;;;;;;;;;;;;;32.67;26.03;101036.22;4934945;28;97948;-63
2022/05/14 08:08:51;;;;;;;;;;;;;;;33.15;25.57;101030.00;4937746;28;107986;-63
2022/05/14 08:11:17;;;;;;;;;;;;;;;33.68;24.55;101025.25;4936588;28;98667;-67
2022/05/14 08:13:43;;;;;;;;;;;;;;;34.21;23.76;101023.97;4941524;28;106114;-62
2022/05/14 08:16:09;;;;;;;;;;;;;;;34.86;23.78;101029.56;4936959;28;99353;-67
2022/05/14 08:18:35;;;;;;;;;;;;;;;35.50;22.98;101027.91;4940608;28;98982;-67
2022/05/14 08:24:29;;;;;;;;;;;;;;;36.03;22.76;101020.56;4936624;28;103174;-67
2022/05/14 08:26:31;;;;;;;;;;;;;;;37.25;22.16;101016.00;4936774;28;98283;-67
2022/05/14 08:28:57;;;;;;;;;;;;;;;37.67;21.82;101014.19;4939610;28;128380;-63
2022/05/14 08:31:23;;;;;;;;;;;;;;;37.90;21.29;101016.00;4936024;28;126735;-67
2022/05/14 08:33:49;;;;;;;;;;;;;;;37.99;21.07;101010.53;4941946;28;98038;-62
2022/05/14 08:36:15;;;;;;;;;;;;;;;36.69;22.07;101004.84;4935992;28;126911;-66
2022/05/14 08:38:40;;;;;;;;;;;;;;;38.08;19.95;100995.81;4937936;28;128221;-67
2022/05/14 08:41:06;;;;;;;;;;;;;;;37.71;20.26;100998.00;4935557;28;126428;-66
2022/05/14 08:43:42;;;;;;;;;;;;;;;37.05;20.35;100980.34;4937651;28;117371;-67
2022/05/14 08:46:19;;;;;;;;;;;;;;;37.49;20.05;100991.34;4934517;28;107313;-66
2022/05/14 08:48:49;;;;;;;;;;;;;;;37.13;20.06;100980.19;4940777;28;98343;-63
2022/05/14 08:51:19;;;;;;;;;;;;;;;36.99;20.41;100993.34;4936473;28;98025;-64
2022/05/14 08:53:46;;;;;;;;;;;;;;;37.55;19.72;100990.38;4934430;28;99598;-63
2022/05/14 08:56:12;;;;;;;;;;;;;;;35.17;21.38;100960.34;4936520;28;99018;-67
2022/05/14 08:58:52;;;;;;;;;;;;;;;36.24;20.73;100971.69;4937046;28;98355;-63
2022/05/14 09:01:22;;;;;;;;;;;;;;;37.61;19.41;100984.22;4934138;28;98297;-66
2022/05/14 09:03:48;;;;;;;;;;;;;;;37.25;20.05;100987.91;4944241;28;99261;-66
2022/05/14 09:06:14;;;;;;;;;;;;;;;34.29;22.20;100977.13;4936284;28;99183;-66
2022/05/14 09:08:40;;;;;;;;;;;;;;;34.34;21.85;100974.66;4940685;28;127879;-63
2022/05/14 09:11:16;;;;;;;;;;;;;;;34.88;21.22;100960.78;4935782;28;122442;-66
2022/05/14 09:13:47;;;;;;;;;;;;;;;35.19;21.01;100974.72;4935435;28;97923;-63
2022/05/14 09:16:39;;;;;;;;;;;;;;;33.08;23.18;100970.63;4937491;28;98856;-63
2022/05/14 09:19:16;;;;;;;;;;;;;;;32.44;22.98;100971.78;4943509;28;102496;-62
2022/05/14 09:21:56;;;;;;;;;;;;;;;33.23;22.18;100960.97;4937399;28;122114;-66
2022/05/14 09:24:26;;;;;;;;;;;;;;;34.18;22.06;100966.06;4950993;28;97834;-63
2022/05/14 09:27:09;;;;;;;;;;;;;;;34.58;21.87;100955.19;4937391;28;99612;-64
2022/05/14 09:29:39;;;;;;;;;;;;;;;34.07;21.94;100971.78;4944784;28;99054;-66
2022/05/14 09:32:20;;;;;;;;;;;;;;;33.73;22.50;100974.53;4941854;28;97922;-63
2022/05/14 09:34:46;;;;;;;;;;;;;;;35.08;21.13;100965.72;4939528;28;97842;-62
2022/05/14 09:37:16;;;;;;;;;;;;;;;34.96;21.67;100972.66;4938341;28;98790;-62
2022/05/14 09:39:41;;;;;;;;;;;;;;;36.81;20.14;100976.09;4938851;28;98217;-66
2022/05/14 09:42:25;;;;;;;;;;;;;;;35.24;21.21;100976.25;4939933;28;119664;-62
2022/05/14 09:44:52;;;;;;;;;;;;;;;36.15;20.86;100977.84;4938849;28;98255;-62
2022/05/14 09:47:26;;;;;;;;;;;;;;;36.64;20.25;100980.88;4938717;28;98130;-62
2022/05/14 09:50:19;;;;;;;;;;;;;;;37.86;19.65;100975.91;4939305;28;99355;-62
2022/05/14 09:52:57;;;;;;;;;;;;;;;38.10;19.46;100970.06;4949737;28;98206;-66
2022/05/14 09:55:26;;;;;;;;;;;;;;;38.83;19.17;100964.69;4939458;28;98244;-62
2022/05/14 09:57:58;;;;;;;;;;;;;;;39.39;18.80;100959.25;4921050;28;109264;-66
2022/05/14 10:00:36;;;;;;;;;;;;;;;39.90;17.79;100961.13;4939235;28;126832;-63
2022/05/14 10:03:11;;;;;;;;;;;;;;;40.04;18.29;100956.97;4931595;28;98471;-66
2022/05/14 10:06:05;;;;;;;;;;;;;;;40.51;18.10;100953.22;4953487;28;98153;-66
2022/05/14 10:08:47;;;;;;;;;;;;;;;38.14;19.25;100946.22;4937983;28;98534;-63
2022/05/14 10:11:22;;;;;;;;;;;;;;;39.43;18.60;100956.31;4938782;28;99172;-63
2022/05/14 10:14:06;;;;;;;;;;;;;;;37.80;19.28;100939.09;4943352;28;98434;-65
2022/05/14 10:17:10;;;;;;;;;;;;;;;38.71;18.83;100935.28;4939036;28;97774;-66
2022/05/14 10:20:28;;;;;;;;;;;;;;;36.65;20.21;100936.75;4943644;28;99095;-65
2022/05/14 10:29:30;;;;;;;;;;;;;;;35.61;20.57;100934.03;4936136;28;98002;-65
2022/05/14 10:32:05;;;;;;;;;;;;;;;33.69;21.60;100934.66;4938923;28;98842;-63
2022/05/14 10:34:55;;;;;;;;;;;;;;;33.06;22.32;100934.78;4919507;28;99733;-63
2022/05/14 10:37:27;;;;;;;;;;;;;;;32.25;23.00;100925.63;4937098;28;126613;-65
2022/05/14 10:40:02;;;;;;;;;;;;;;;33.40;21.75;100925.69;4937089;28;118173;-66
2022/05/14 10:43:08;;;;;;;;;;;;;;;35.12;20.95;100930.81;4937451;28;98481;-66
2022/05/14 10:45:38;;;;;;;;;;;;;;;34.83;21.21;100924.06;4937835;28;99042;-66
2022/05/14 10:48:15;;;;;;;;;;;;;;;35.93;20.67;100926.22;4935768;28;99056;-66
2022/05/14 10:50:41;;;;;;;;;;;;;;;36.62;20.44;100916.75;4952901;28;98100;-62
2022/05/14 10:53:08;;;;;;;;;;;;;;;37.21;20.11;100925.41;4944052;28;98927;-65
2022/05/14 10:55:55;;;;;;;;;;;;;;;37.61;19.26;100916.75;4937001;28;99092;-63
2022/05/14 10:58:51;;;;;;;;;;;;;;;37.96;19.78;100915.00;4942037;28;98028;-66
2022/05/14 11:01:29;;;;;;;;;;;;;;;38.35;17.69;100918.72;4946132;28;98135;-64
2022/05/14 11:03:57;;;;;;;;;;;;;;;37.24;19.08;100902.06;4938482;28;99095;-67
2022/05/14 11:06:29;;;;;;;;;;;;;;;36.97;19.42;100913.56;4936404;28;98306;-66
2022/05/14 11:08:55;;;;;;;;;;;;;;;36.00;20.46;100910.06;4935967;28;97998;-63
2022/05/14 11:11:31;;;;;;;;;;;;;;;34.96;21.06;100910.28;4938433;28;117982;-66
2022/05/14 11:14:07;;;;;;;;;;;;;;;36.17;20.13;100901.72;4921516;28;120400;-65
2022/05/14 11:16:44;;;;;;;;;;;;;;;36.47;20.28;100907.09;4951721;28;100594;-66
2022/05/14 11:19:11;;;;;;;;;;;;;;;36.48;20.19;100908.66;4937616;28;98206;-62
2022/05/14 11:21:40;;;;;;;;;;;;;;;34.63;21.53;100902.38;4938276;28;110900;-62
2022/05/14 11:24:07;;;;;;;;;;;;;;;34.33;21.58;100903.16;4936793;28;98604;-65
2022/05/14 11:26:42;;;;;;;;;;;;;;;33.22;21.93;100898.75;4936285;28;115978;-63
2022/05/14 11:29:14;;;;;;;;;;;;;;;33.67;21.66;100900.72;4919767;28;120471;-63
2022/05/14 11:31:47;;;;;;;;;;;;;;;34.01;21.52;100908.38;4937146;28;116669;-62
2022/05/14 11:34:16;;;;;;;;;;;;;;;34.11;21.00;100902.66;4926658;28;126774;-63
2022/05/14 11:36:50;;;;;;;;;;;;;;;34.29;20.98;100890.44;4934614;28;99117;-62
2022/05/14 11:39:24;;;;;;;;;;;;;;;34.40;20.89;100899.47;4937934;28;98386;-65
2022/05/14 11:41:52;;;;;;;;;;;;;;;34.14;20.72;100904.59;4938430;28;97752;-63
2022/05/14 11:44:39;;;;;;;;;;;;;;;33.42;21.90;100898.16;4942440;28;123449;-63
2022/05/14 11:47:42;;;;;;;;;;;;;;;32.84;22.20;100900.59;4937981;28;98723;-66
2022/05/14 11:50:09;;;;;;;;;;;;;;;32.94;22.17;100896.19;4937136;28;98264;-64
2022/05/14 11:53:05;;;;;;;;;;;;;;;32.14;22.96;100906.13;4939813;28;117485;-66
2022/05/14 11:55:48;;;;;;;;;;;;;;;31.24;23.26;100897.16;4937156;28;99118;-63
2022/05/14 11:58:18;;;;;;;;;;;;;;;31.42;23.52;100904.72;4938735;27;98473;-63
2022/05/14 12:00:44;;;;;;;;;;;;;;;31.62;23.74;100900.28;4933932;28;123773;-62
2022/05/14 12:03:23;;;;;;;;;;;;;;;32.29;23.02;100892.16;4943732;28;97985;-65
2022/05/14 12:06:20;;;;;;;;;;;;;;;32.76;22.80;100901.84;4920475;28;98649;-66
2022/05/14 12:09:28;;;;;;;;;;;;;;;33.12;22.45;100894.03;4936937;28;98604;-66
2022/05/14 12:12:03;;;;;;;;;;;;;;;33.45;22.01;100900.13;4939227;28;98456;-62
2022/05/14 12:14:34;;;;;;;;;;;;;;;33.80;22.41;100900.97;4937906;28;98038;-67
2022/05/14 12:17:01;;;;;;;;;;;;;;;34.30;21.74;100894.81;4918132;28;99355;-69
2022/05/14 12:19:32;;;;;;;;;;;;;;;34.40;21.41;100905.06;4938082;28;122236;-60
2022/05/14 12:22:16;;;;;;;;;;;;;;;34.36;21.85;100901.53;4918054;28;125404;-63
2022/05/14 12:25:02;;;;;;;;;;;;;;;34.13;21.68;100900.22;4937698;28;114465;-60
2022/05/14 12:27:30;;;;;;;;;;;;;;;34.02;21.70;100893.97;4933320;28;98467;-63
2022/05/14 12:29:57;;;;;;;;;;;;;;;33.81;21.59;100895.00;4936939;28;98398;-58
2022/05/14 12:35:14;;;;;;;;;;;;;;;33.16;22.22;100900.38;4936155;28;98078;-59
2022/05/14 12:37:41;;;;;;;;;;;;;;;33.16;22.36;100894.00;4942744;28;98347;-65
2022/05/14 12:40:33;;;;;;;;;;;;;;;33.08;22.55;100884.91;4942277;28;128036;-63
2022/05/14 12:42:59;;;;;;;;;;;;;;;32.42;22.79;100891.31;4941668;28;99305;-63
2022/05/14 12:45:42;;;;;;;;;;;;;;;32.32;23.04;100892.13;4936697;28;98228;-63
2022/05/14 12:48:12;;;;;;;;;;;;;;;31.92;23.17;100882.34;4945051;28;100167;-63
2022/05/14 12:50:41;;;;;;;;;;;;;;;31.54;23.51;100890.38;4925817;28;100469;-63
2022/05/14 12:53:11;;;;;;;;;;;;;;;30.91;23.93;100887.19;4951574;28;98549;-60
2022/05/14 12:55:39;;;;;;;;;;;;;;;30.62;23.95;100885.53;4937048;28;98619;-60
2022/05/14 12:58:06;;;;;;;;;;;;;;;30.15;24.20;100879.81;4919926;28;124994;-58
2022/05/14 13:00:34;;;;;;;;;;;;;;;29.82;24.67;100880.81;4937067;28;98735;-56
2022/05/14 13:03:03;;;;;;;;;;;;;;;29.67;25.08;100882.75;4946017;28;97637;-63
2022/05/14 13:05:37;;;;;;;;;;;;;;;30.05;24.59;100895.22;4939408;28;103570;-60
2022/05/14 13:08:08;;;;;;;;;;;;;;;30.61;24.38;100878.38;4938376;28;126815;-60
2022/05/14 13:10:34;;;;;;;;;;;;;;;30.06;24.65;100882.94;4944247;28;98298;-61
2022/05/14 13:13:03;;;;;;;;;;;;;;;29.74;25.31;100885.53;4936478;28;128390;-61